Aviation Digital Data Service (ADDS)

Output produced by METARs form (1347 UTC 10 July 2020)
found at http://www.aviationweather.gov/metar/data/
 
KCLT 101252Z 00000KT 10SM FEW020 SCT070 BKN095 27/22 A2996 RMK AO2 SLP135 T02720222
KCLT 101315Z 1013/1118 VRB03KT P6SM OVC070 
     FM101700 25006KT P6SM VCSH SCT050 
     TEMPO 1021/1101 4SM TSRA BR BKN040CB 
     FM110400 23003KT P6SM SCT030 
     FM111300 33004KT P6SM FEW250